sensor_id;sensor_type;location;lat;lon;timestamp;temperature;humidity
33931;DHT22;20215;53.130;6.408;2022-10-22T00:01:33;17.30;93.10
33931;DHT22;20215;53.130;6.408;2022-10-22T00:03:59;17.30;93.10
33931;DHT22;20215;53.130;6.408;2022-10-22T00:06:24;17.30;93.20
33931;DHT22;20215;53.130;6.408;2022-10-22T00:08:50;17.30;93.20
33931;DHT22;20215;53.130;6.408;2022-10-22T00:11:17;17.30;93.40
33931;DHT22;20215;53.130;6.408;2022-10-22T00:13:44;17.30;93.60
33931;DHT22;20215;53.130;6.408;2022-10-22T00:16:09;17.30;93.50
33931;DHT22;20215;53.130;6.408;2022-10-22T00:18:35;17.20;93.40
33931;DHT22;20215;53.130;6.408;2022-10-22T00:21:01;17.30;93.40
33931;DHT22;20215;53.130;6.408;2022-10-22T00:23:27;17.20;93.30
33931;DHT22;20215;53.130;6.408;2022-10-22T00:25:53;17.20;93.20
33931;DHT22;20215;53.130;6.408;2022-10-22T00:28:19;17.20;93.20
33931;DHT22;20215;53.130;6.408;2022-10-22T00:30:44;17.20;93.20
33931;DHT22;20215;53.130;6.408;2022-10-22T00:33:10;17.20;93.10
33931;DHT22;20215;53.130;6.408;2022-10-22T00:35:35;17.20;93.10
33931;DHT22;20215;53.130;6.408;2022-10-22T00:38:01;17.20;93.10
33931;DHT22;20215;53.130;6.408;2022-10-22T00:40:27;17.30;93.10
33931;DHT22;20215;53.130;6.408;2022-10-22T00:42:53;17.20;93.20
33931;DHT22;20215;53.130;6.408;2022-10-22T00:45:24;17.20;93.30
33931;DHT22;20215;53.130;6.408;2022-10-22T00:48:09;17.20;93.40
33931;DHT22;20215;53.130;6.408;2022-10-22T00:50:45;17.20;93.40
33931;DHT22;20215;53.130;6.408;2022-10-22T00:53:18;17.20;93.40
33931;DHT22;20215;53.130;6.408;2022-10-22T00:55:47;17.10;93.30
33931;DHT22;20215;53.130;6.408;2022-10-22T00:58:16;17.10;93.40
33931;DHT22;20215;53.130;6.408;2022-10-22T01:00:43;17.10;93.30
33931;DHT22;20215;53.130;6.408;2022-10-22T01:03:09;17.20;93.30
33931;DHT22;20215;53.130;6.408;2022-10-22T01:05:55;17.10;93.30
33931;DHT22;20215;53.130;6.408;2022-10-22T01:11:05;17.10;93.30
33931;DHT22;20215;53.130;6.408;2022-10-22T01:16:46;17.10;93.20
33931;DHT22;20215;53.130;6.408;2022-10-22T01:22:29;17.10;93.30
33931;DHT22;20215;53.130;6.408;2022-10-22T01:27:34;17.10;93.30
33931;DHT22;20215;53.130;6.408;2022-10-22T01:30:11;17.10;93.40
33931;DHT22;20215;53.130;6.408;2022-10-22T01:32:50;17.10;93.50
33931;DHT22;20215;53.130;6.408;2022-10-22T01:35:21;17.10;93.20
33931;DHT22;20215;53.130;6.408;2022-10-22T01:37:52;17.10;93.20
33931;DHT22;20215;53.130;6.408;2022-10-22T01:40:19;17.10;93.20
33931;DHT22;20215;53.130;6.408;2022-10-22T01:42:59;17.10;93.20
33931;DHT22;20215;53.130;6.408;2022-10-22T01:45:28;17.10;93.10
33931;DHT22;20215;53.130;6.408;2022-10-22T01:51:17;17.10;93.30
33931;DHT22;20215;53.130;6.408;2022-10-22T02:07:51;17.10;93.40
33931;DHT22;20215;53.130;6.408;2022-10-22T02:10:19;17.00;93.50
33931;DHT22;20215;53.130;6.408;2022-10-22T02:12:49;17.00;93.50
33931;DHT22;20215;53.130;6.408;2022-10-22T02:15:18;17.00;93.50
33931;DHT22;20215;53.130;6.408;2022-10-22T02:17:45;17.00;93.50
33931;DHT22;20215;53.130;6.408;2022-10-22T02:20:23;17.00;93.20
33931;DHT22;20215;53.130;6.408;2022-10-22T02:22:51;17.00;93.20
33931;DHT22;20215;53.130;6.408;2022-10-22T02:25:17;17.00;93.20
33931;DHT22;20215;53.130;6.408;2022-10-22T02:27:45;17.00;93.20
33931;DHT22;20215;53.130;6.408;2022-10-22T02:30:15;17.00;93.40
33931;DHT22;20215;53.130;6.408;2022-10-22T02:32:48;17.00;93.30
33931;DHT22;20215;53.130;6.408;2022-10-22T02:35:17;17.00;93.30
33931;DHT22;20215;53.130;6.408;2022-10-22T02:37:44;17.10;93.30
33931;DHT22;20215;53.130;6.408;2022-10-22T02:40:10;17.00;93.10
33931;DHT22;20215;53.130;6.408;2022-10-22T02:42:37;17.00;93.10
33931;DHT22;20215;53.130;6.408;2022-10-22T02:45:04;17.00;93.10
33931;DHT22;20215;53.130;6.408;2022-10-22T02:47:30;17.00;93.00
33931;DHT22;20215;53.130;6.408;2022-10-22T02:49:56;17.00;93.30
33931;DHT22;20215;53.130;6.408;2022-10-22T02:52:21;17.00;93.10
33931;DHT22;20215;53.130;6.408;2022-10-22T02:54:47;17.00;93.00
33931;DHT22;20215;53.130;6.408;2022-10-22T02:57:13;17.10;93.20
33931;DHT22;20215;53.130;6.408;2022-10-22T02:59:38;17.00;93.00
33931;DHT22;20215;53.130;6.408;2022-10-22T03:02:04;17.00;93.00
33931;DHT22;20215;53.130;6.408;2022-10-22T03:04:29;17.00;93.10
33931;DHT22;20215;53.130;6.408;2022-10-22T03:06:55;17.00;93.30
33931;DHT22;20215;53.130;6.408;2022-10-22T03:09:20;17.10;93.10
33931;DHT22;20215;53.130;6.408;2022-10-22T03:11:46;17.00;93.00
33931;DHT22;20215;53.130;6.408;2022-10-22T03:14:12;17.00;93.10
33931;DHT22;20215;53.130;6.408;2022-10-22T03:16:37;17.00;93.10
33931;DHT22;20215;53.130;6.408;2022-10-22T03:19:03;17.00;93.00
33931;DHT22;20215;53.130;6.408;2022-10-22T03:21:46;17.00;92.90
33931;DHT22;20215;53.130;6.408;2022-10-22T03:24:20;17.00;92.90
33931;DHT22;20215;53.130;6.408;2022-10-22T03:26:49;17.00;92.90
33931;DHT22;20215;53.130;6.408;2022-10-22T03:29:16;17.00;92.90
33931;DHT22;20215;53.130;6.408;2022-10-22T03:31:43;17.00;92.90
33931;DHT22;20215;53.130;6.408;2022-10-22T03:34:08;17.00;92.90
33931;DHT22;20215;53.130;6.408;2022-10-22T03:36:36;17.00;93.00
33931;DHT22;20215;53.130;6.408;2022-10-22T03:39:03;17.00;93.10
33931;DHT22;20215;53.130;6.408;2022-10-22T03:41:29;17.00;93.10
33931;DHT22;20215;53.130;6.408;2022-10-22T03:43:55;17.00;93.20
33931;DHT22;20215;53.130;6.408;2022-10-22T03:46:22;17.00;93.20
33931;DHT22;20215;53.130;6.408;2022-10-22T03:48:47;17.00;93.20
33931;DHT22;20215;53.130;6.408;2022-10-22T03:51:13;17.00;93.20
33931;DHT22;20215;53.130;6.408;2022-10-22T03:53:38;17.00;93.10
33931;DHT22;20215;53.130;6.408;2022-10-22T03:56:08;17.00;93.20
33931;DHT22;20215;53.130;6.408;2022-10-22T03:58:35;17.00;93.30
33931;DHT22;20215;53.130;6.408;2022-10-22T04:01:08;17.00;93.00
33931;DHT22;20215;53.130;6.408;2022-10-22T04:03:34;17.00;93.20
33931;DHT22;20215;53.130;6.408;2022-10-22T04:06:02;17.00;93.00
33931;DHT22;20215;53.130;6.408;2022-10-22T04:08:28;17.00;93.00
33931;DHT22;20215;53.130;6.408;2022-10-22T04:10:53;17.00;92.90
33931;DHT22;20215;53.130;6.408;2022-10-22T04:13:19;17.00;92.90
33931;DHT22;20215;53.130;6.408;2022-10-22T04:15:44;16.90;92.90
33931;DHT22;20215;53.130;6.408;2022-10-22T04:18:10;16.90;93.10
33931;DHT22;20215;53.130;6.408;2022-10-22T04:20:35;16.90;93.00
33931;DHT22;20215;53.130;6.408;2022-10-22T04:23:01;16.90;93.00
33931;DHT22;20215;53.130;6.408;2022-10-22T04:25:26;16.90;93.20
33931;DHT22;20215;53.130;6.408;2022-10-22T04:27:52;16.90;93.20
33931;DHT22;20215;53.130;6.408;2022-10-22T04:30:18;16.90;93.10
33931;DHT22;20215;53.130;6.408;2022-10-22T04:32:43;17.00;93.10
33931;DHT22;20215;53.130;6.408;2022-10-22T04:35:09;16.90;93.40
33931;DHT22;20215;53.130;6.408;2022-10-22T04:37:34;16.90;93.10
33931;DHT22;20215;53.130;6.408;2022-10-22T04:40:00;16.90;93.10
33931;DHT22;20215;53.130;6.408;2022-10-22T04:42:25;16.90;93.00
33931;DHT22;20215;53.130;6.408;2022-10-22T04:44:51;16.90;93.10
33931;DHT22;20215;53.130;6.408;2022-10-22T04:47:17;16.90;92.90
33931;DHT22;20215;53.130;6.408;2022-10-22T04:49:42;16.90;92.90
33931;DHT22;20215;53.130;6.408;2022-10-22T04:52:08;16.90;92.90
33931;DHT22;20215;53.130;6.408;2022-10-22T04:54:33;16.90;92.70
33931;DHT22;20215;53.130;6.408;2022-10-22T04:56:59;16.90;92.70
33931;DHT22;20215;53.130;6.408;2022-10-22T04:59:25;16.90;92.70
33931;DHT22;20215;53.130;6.408;2022-10-22T05:01:50;16.90;92.70
33931;DHT22;20215;53.130;6.408;2022-10-22T05:04:17;16.90;92.70
33931;DHT22;20215;53.130;6.408;2022-10-22T05:06:44;16.90;92.80
33931;DHT22;20215;53.130;6.408;2022-10-22T05:09:15;16.90;92.80
33931;DHT22;20215;53.130;6.408;2022-10-22T05:11:42;16.90;92.90
33931;DHT22;20215;53.130;6.408;2022-10-22T05:14:10;16.90;93.10
33931;DHT22;20215;53.130;6.408;2022-10-22T05:16:36;17.00;93.00
33931;DHT22;20215;53.130;6.408;2022-10-22T05:19:05;16.90;93.20
33931;DHT22;20215;53.130;6.408;2022-10-22T05:21:32;16.90;93.00
33931;DHT22;20215;53.130;6.408;2022-10-22T05:23:58;17.00;93.30
33931;DHT22;20215;53.130;6.408;2022-10-22T05:26:27;17.00;93.10
33931;DHT22;20215;53.130;6.408;2022-10-22T05:28:53;16.90;93.00
33931;DHT22;20215;53.130;6.408;2022-10-22T05:31:19;16.90;92.90
33931;DHT22;20215;53.130;6.408;2022-10-22T05:33:45;16.90;92.90
33931;DHT22;20215;53.130;6.408;2022-10-22T05:36:17;16.90;92.80
33931;DHT22;20215;53.130;6.408;2022-10-22T05:38:44;16.90;92.90
33931;DHT22;20215;53.130;6.408;2022-10-22T05:41:12;16.90;92.80
33931;DHT22;20215;53.130;6.408;2022-10-22T05:43:38;16.90;92.70
33931;DHT22;20215;53.130;6.408;2022-10-22T05:46:08;16.90;92.70
33931;DHT22;20215;53.130;6.408;2022-10-22T05:48:35;16.90;92.80
33931;DHT22;20215;53.130;6.408;2022-10-22T05:51:02;16.90;92.80
33931;DHT22;20215;53.130;6.408;2022-10-22T05:53:31;16.90;93.00
33931;DHT22;20215;53.130;6.408;2022-10-22T05:56:01;16.90;92.90
33931;DHT22;20215;53.130;6.408;2022-10-22T05:58:27;16.90;92.90
33931;DHT22;20215;53.130;6.408;2022-10-22T06:00:53;16.90;93.00
33931;DHT22;20215;53.130;6.408;2022-10-22T06:03:18;16.90;92.90
33931;DHT22;20215;53.130;6.408;2022-10-22T06:05:44;16.90;92.90
33931;DHT22;20215;53.130;6.408;2022-10-22T06:08:12;16.90;92.80
33931;DHT22;20215;53.130;6.408;2022-10-22T06:10:41;16.90;92.80
33931;DHT22;20215;53.130;6.408;2022-10-22T06:13:07;16.90;92.70
33931;DHT22;20215;53.130;6.408;2022-10-22T06:15:33;16.90;92.60
33931;DHT22;20215;53.130;6.408;2022-10-22T06:17:58;16.90;92.60
33931;DHT22;20215;53.130;6.408;2022-10-22T06:20:25;16.90;92.50
33931;DHT22;20215;53.130;6.408;2022-10-22T06:22:50;16.90;92.50
33931;DHT22;20215;53.130;6.408;2022-10-22T06:25:16;16.90;92.50
33931;DHT22;20215;53.130;6.408;2022-10-22T06:27:42;16.80;92.40
33931;DHT22;20215;53.130;6.408;2022-10-22T06:30:08;16.90;92.40
33931;DHT22;20215;53.130;6.408;2022-10-22T06:32:34;16.90;92.40
33931;DHT22;20215;53.130;6.408;2022-10-22T06:34:59;16.90;92.50
33931;DHT22;20215;53.130;6.408;2022-10-22T06:37:25;16.90;92.40
33931;DHT22;20215;53.130;6.408;2022-10-22T06:39:50;16.90;92.50
33931;DHT22;20215;53.130;6.408;2022-10-22T06:42:17;16.90;92.40
33931;DHT22;20215;53.130;6.408;2022-10-22T06:44:42;16.90;92.50
33931;DHT22;20215;53.130;6.408;2022-10-22T06:47:08;16.90;92.40
33931;DHT22;20215;53.130;6.408;2022-10-22T06:49:33;16.90;92.40
33931;DHT22;20215;53.130;6.408;2022-10-22T06:51:59;16.90;92.40
33931;DHT22;20215;53.130;6.408;2022-10-22T06:54:25;16.90;92.40
33931;DHT22;20215;53.130;6.408;2022-10-22T06:56:50;16.90;92.30
33931;DHT22;20215;53.130;6.408;2022-10-22T06:59:16;16.90;92.30
33931;DHT22;20215;53.130;6.408;2022-10-22T07:01:42;16.90;92.30
33931;DHT22;20215;53.130;6.408;2022-10-22T07:04:09;16.90;92.30
33931;DHT22;20215;53.130;6.408;2022-10-22T07:06:35;16.90;92.20
33931;DHT22;20215;53.130;6.408;2022-10-22T07:09:01;16.90;92.30
33931;DHT22;20215;53.130;6.408;2022-10-22T07:11:32;16.90;92.20
33931;DHT22;20215;53.130;6.408;2022-10-22T07:14:01;16.90;92.20
33931;DHT22;20215;53.130;6.408;2022-10-22T07:16:27;16.90;92.30
33931;DHT22;20215;53.130;6.408;2022-10-22T07:18:52;16.90;92.20
33931;DHT22;20215;53.130;6.408;2022-10-22T07:21:18;16.90;92.20
33931;DHT22;20215;53.130;6.408;2022-10-22T07:23:45;16.90;92.20
33931;DHT22;20215;53.130;6.408;2022-10-22T07:26:14;16.90;92.20
33931;DHT22;20215;53.130;6.408;2022-10-22T07:28:40;16.90;92.20
33931;DHT22;20215;53.130;6.408;2022-10-22T07:31:08;16.90;92.20
33931;DHT22;20215;53.130;6.408;2022-10-22T07:33:34;16.90;92.20
33931;DHT22;20215;53.130;6.408;2022-10-22T07:36:02;16.90;92.20
33931;DHT22;20215;53.130;6.408;2022-10-22T07:38:29;16.90;92.20
33931;DHT22;20215;53.130;6.408;2022-10-22T07:40:56;16.90;92.20
33931;DHT22;20215;53.130;6.408;2022-10-22T07:43:22;17.00;92.10
33931;DHT22;20215;53.130;6.408;2022-10-22T07:45:48;16.90;92.10
33931;DHT22;20215;53.130;6.408;2022-10-22T07:48:13;16.90;92.10
33931;DHT22;20215;53.130;6.408;2022-10-22T07:50:39;16.90;92.10
33931;DHT22;20215;53.130;6.408;2022-10-22T07:53:05;17.00;92.20
33931;DHT22;20215;53.130;6.408;2022-10-22T07:55:32;16.90;92.30
33931;DHT22;20215;53.130;6.408;2022-10-22T07:57:58;16.90;92.10
33931;DHT22;20215;53.130;6.408;2022-10-22T08:00:23;16.90;92.20
33931;DHT22;20215;53.130;6.408;2022-10-22T08:02:49;17.00;92.30
33931;DHT22;20215;53.130;6.408;2022-10-22T08:05:15;17.00;92.20
33931;DHT22;20215;53.130;6.408;2022-10-22T08:07:41;17.00;92.20
33931;DHT22;20215;53.130;6.408;2022-10-22T08:10:08;17.00;92.20
33931;DHT22;20215;53.130;6.408;2022-10-22T08:12:34;17.00;92.20
33931;DHT22;20215;53.130;6.408;2022-10-22T08:14:59;17.00;92.20
33931;DHT22;20215;53.130;6.408;2022-10-22T08:17:26;17.00;92.10
33931;DHT22;20215;53.130;6.408;2022-10-22T08:19:51;17.00;92.20
33931;DHT22;20215;53.130;6.408;2022-10-22T08:22:17;17.00;92.20
33931;DHT22;20215;53.130;6.408;2022-10-22T08:24:43;17.00;92.10
33931;DHT22;20215;53.130;6.408;2022-10-22T08:27:08;17.10;92.20
33931;DHT22;20215;53.130;6.408;2022-10-22T08:29:34;17.10;92.20
33931;DHT22;20215;53.130;6.408;2022-10-22T08:31:59;17.10;92.30
33931;DHT22;20215;53.130;6.408;2022-10-22T08:34:28;17.10;92.40
33931;DHT22;20215;53.130;6.408;2022-10-22T08:36:54;17.20;92.60
33931;DHT22;20215;53.130;6.408;2022-10-22T08:39:19;17.20;92.50
33931;DHT22;20215;53.130;6.408;2022-10-22T08:42:06;17.20;92.50
33931;DHT22;20215;53.130;6.408;2022-10-22T08:49:58;17.30;92.50
33931;DHT22;20215;53.130;6.408;2022-10-22T08:52:24;17.30;92.50
33931;DHT22;20215;53.130;6.408;2022-10-22T08:54:56;17.30;92.50
33931;DHT22;20215;53.130;6.408;2022-10-22T08:57:50;17.30;92.60
33931;DHT22;20215;53.130;6.408;2022-10-22T09:00:34;17.40;92.70
33931;DHT22;20215;53.130;6.408;2022-10-22T09:03:30;17.40;92.80
33931;DHT22;20215;53.130;6.408;2022-10-22T09:06:52;17.50;92.50
33931;DHT22;20215;53.130;6.408;2022-10-22T09:09:18;17.50;92.50
33931;DHT22;20215;53.130;6.408;2022-10-22T09:11:47;17.50;92.60
33931;DHT22;20215;53.130;6.408;2022-10-22T09:14:21;17.50;92.50
33931;DHT22;20215;53.130;6.408;2022-10-22T09:22:33;17.60;92.60
33931;DHT22;20215;53.130;6.408;2022-10-22T09:25:24;17.70;92.60
33931;DHT22;20215;53.130;6.408;2022-10-22T09:27:51;17.70;92.60
33931;DHT22;20215;53.130;6.408;2022-10-22T09:30:24;17.70;92.60
33931;DHT22;20215;53.130;6.408;2022-10-22T09:33:15;17.70;92.50
33931;DHT22;20215;53.130;6.408;2022-10-22T09:38:22;17.70;92.40
33931;DHT22;20215;53.130;6.408;2022-10-22T09:40:51;17.70;92.20
33931;DHT22;20215;53.130;6.408;2022-10-22T09:43:17;17.70;92.20
33931;DHT22;20215;53.130;6.408;2022-10-22T09:45:44;17.80;92.20
33931;DHT22;20215;53.130;6.408;2022-10-22T09:48:21;17.80;92.10
33931;DHT22;20215;53.130;6.408;2022-10-22T09:51:18;17.80;92.20
33931;DHT22;20215;53.130;6.408;2022-10-22T09:54:00;17.80;92.20
33931;DHT22;20215;53.130;6.408;2022-10-22T09:56:32;17.90;92.20
33931;DHT22;20215;53.130;6.408;2022-10-22T09:59:02;17.80;92.10
33931;DHT22;20215;53.130;6.408;2022-10-22T10:01:32;17.80;92.10
33931;DHT22;20215;53.130;6.408;2022-10-22T10:04:03;17.90;92.20
33931;DHT22;20215;53.130;6.408;2022-10-22T10:06:32;17.90;92.20
33931;DHT22;20215;53.130;6.408;2022-10-22T10:08:58;17.90;92.30
33931;DHT22;20215;53.130;6.408;2022-10-22T10:14:20;17.90;92.10
33931;DHT22;20215;53.130;6.408;2022-10-22T10:22:04;17.80;92.20
33931;DHT22;20215;53.130;6.408;2022-10-22T10:27:55;17.80;92.50
33931;DHT22;20215;53.130;6.408;2022-10-22T10:30:23;17.80;92.50
33931;DHT22;20215;53.130;6.408;2022-10-22T10:40:48;17.80;92.40
33931;DHT22;20215;53.130;6.408;2022-10-22T10:43:28;17.90;92.50
33931;DHT22;20215;53.130;6.408;2022-10-22T10:48:55;17.90;92.50
33931;DHT22;20215;53.130;6.408;2022-10-22T10:56:44;17.90;92.30
33931;DHT22;20215;53.130;6.408;2022-10-22T11:04:48;17.90;92.60
33931;DHT22;20215;53.130;6.408;2022-10-22T11:07:38;17.90;92.70
33931;DHT22;20215;53.130;6.408;2022-10-22T11:12:46;17.90;92.50
33931;DHT22;20215;53.130;6.408;2022-10-22T11:15:30;17.90;92.60
33931;DHT22;20215;53.130;6.408;2022-10-22T11:18:07;17.90;92.70
33931;DHT22;20215;53.130;6.408;2022-10-22T11:23:21;17.90;92.80
33931;DHT22;20215;53.130;6.408;2022-10-22T11:25:49;17.90;93.00
33931;DHT22;20215;53.130;6.408;2022-10-22T11:28:30;17.90;93.10
33931;DHT22;20215;53.130;6.408;2022-10-22T11:31:01;17.90;93.10
33931;DHT22;20215;53.130;6.408;2022-10-22T11:33:35;17.90;92.80
33931;DHT22;20215;53.130;6.408;2022-10-22T11:36:04;18.00;93.00
33931;DHT22;20215;53.130;6.408;2022-10-22T11:38:31;18.00;93.10
33931;DHT22;20215;53.130;6.408;2022-10-22T11:41:26;18.00;93.10
33931;DHT22;20215;53.130;6.408;2022-10-22T11:49:53;18.00;92.90
33931;DHT22;20215;53.130;6.408;2022-10-22T11:51:45;18.00;92.90
33931;DHT22;20215;53.130;6.408;2022-10-22T11:54:38;18.00;92.90
33931;DHT22;20215;53.130;6.408;2022-10-22T11:57:39;18.00;92.70
33931;DHT22;20215;53.130;6.408;2022-10-22T12:03:16;18.00;93.00
33931;DHT22;20215;53.130;6.408;2022-10-22T12:05:43;17.90;92.70
33931;DHT22;20215;53.130;6.408;2022-10-22T12:10:57;18.00;92.70
33931;DHT22;20215;53.130;6.408;2022-10-22T12:13:27;18.00;93.00
33931;DHT22;20215;53.130;6.408;2022-10-22T12:15:57;18.00;93.00
33931;DHT22;20215;53.130;6.408;2022-10-22T12:18:32;18.00;92.80
33931;DHT22;20215;53.130;6.408;2022-10-22T12:20:58;18.00;92.70
33931;DHT22;20215;53.130;6.408;2022-10-22T12:23:30;18.00;92.80
33931;DHT22;20215;53.130;6.408;2022-10-22T12:25:56;18.10;92.80
33931;DHT22;20215;53.130;6.408;2022-10-22T12:28:22;18.10;92.60
33931;DHT22;20215;53.130;6.408;2022-10-22T12:30:48;18.10;93.00
33931;DHT22;20215;53.130;6.408;2022-10-22T12:33:21;18.00;92.80
33931;DHT22;20215;53.130;6.408;2022-10-22T12:35:48;18.10;92.70
33931;DHT22;20215;53.130;6.408;2022-10-22T12:38:21;18.00;92.90
33931;DHT22;20215;53.130;6.408;2022-10-22T12:40:48;18.10;92.80
33931;DHT22;20215;53.130;6.408;2022-10-22T12:43:22;18.10;92.80
33931;DHT22;20215;53.130;6.408;2022-10-22T12:45:49;18.10;92.70
33931;DHT22;20215;53.130;6.408;2022-10-22T12:48:17;18.00;92.60
33931;DHT22;20215;53.130;6.408;2022-10-22T12:50:48;18.10;92.60
33931;DHT22;20215;53.130;6.408;2022-10-22T12:53:29;18.10;92.70
33931;DHT22;20215;53.130;6.408;2022-10-22T12:56:00;18.10;92.60
33931;DHT22;20215;53.130;6.408;2022-10-22T12:58:41;18.20;92.60
33931;DHT22;20215;53.130;6.408;2022-10-22T13:01:10;18.20;92.60
33931;DHT22;20215;53.130;6.408;2022-10-22T13:03:40;18.20;92.50
33931;DHT22;20215;53.130;6.408;2022-10-22T13:09:16;18.30;92.50
33931;DHT22;20215;53.130;6.408;2022-10-22T13:11:48;18.40;92.60
33931;DHT22;20215;53.130;6.408;2022-10-22T13:14:41;18.40;92.50
33931;DHT22;20215;53.130;6.408;2022-10-22T13:22:30;18.60;92.30
33931;DHT22;20215;53.130;6.408;2022-10-22T13:30:18;18.90;92.10
33931;DHT22;20215;53.130;6.408;2022-10-22T13:32:52;18.80;91.90
33931;DHT22;20215;53.130;6.408;2022-10-22T13:35:22;18.90;91.90
33931;DHT22;20215;53.130;6.408;2022-10-22T13:37:48;18.90;91.80
33931;DHT22;20215;53.130;6.408;2022-10-22T13:40:14;18.90;91.70
33931;DHT22;20215;53.130;6.408;2022-10-22T13:42:40;18.90;91.70
33931;DHT22;20215;53.130;6.408;2022-10-22T13:45:05;18.90;91.70
33931;DHT22;20215;53.130;6.408;2022-10-22T13:47:31;18.90;91.70
33931;DHT22;20215;53.130;6.408;2022-10-22T13:49:59;18.90;91.70
33931;DHT22;20215;53.130;6.408;2022-10-22T13:54:57;18.80;91.60
33931;DHT22;20215;53.130;6.408;2022-10-22T13:57:22;18.80;91.70
33931;DHT22;20215;53.130;6.408;2022-10-22T13:59:48;18.80;91.80
33931;DHT22;20215;53.130;6.408;2022-10-22T14:02:13;18.80;91.80
33931;DHT22;20215;53.130;6.408;2022-10-22T14:04:41;18.80;91.80
33931;DHT22;20215;53.130;6.408;2022-10-22T14:07:13;18.70;91.80
33931;DHT22;20215;53.130;6.408;2022-10-22T14:09:38;18.80;91.90
33931;DHT22;20215;53.130;6.408;2022-10-22T14:12:22;18.70;91.90
33931;DHT22;20215;53.130;6.408;2022-10-22T14:14:49;18.70;91.80
33931;DHT22;20215;53.130;6.408;2022-10-22T14:17:15;18.70;91.90
33931;DHT22;20215;53.130;6.408;2022-10-22T14:19:46;18.70;91.90
33931;DHT22;20215;53.130;6.408;2022-10-22T14:22:17;18.70;91.90
33931;DHT22;20215;53.130;6.408;2022-10-22T14:24:43;18.70;91.90
33931;DHT22;20215;53.130;6.408;2022-10-22T14:27:13;18.80;92.00
33931;DHT22;20215;53.130;6.408;2022-10-22T14:29:39;18.80;92.00
33931;DHT22;20215;53.130;6.408;2022-10-22T14:32:13;18.70;92.00
33931;DHT22;20215;53.130;6.408;2022-10-22T14:34:40;18.80;91.90
33931;DHT22;20215;53.130;6.408;2022-10-22T14:37:17;18.80;91.90
33931;DHT22;20215;53.130;6.408;2022-10-22T14:39:44;18.80;91.90
33931;DHT22;20215;53.130;6.408;2022-10-22T14:42:12;18.80;91.90
33931;DHT22;20215;53.130;6.408;2022-10-22T14:44:38;18.80;92.00
33931;DHT22;20215;53.130;6.408;2022-10-22T14:47:04;18.70;92.00
33931;DHT22;20215;53.130;6.408;2022-10-22T14:49:30;18.70;92.00
33931;DHT22;20215;53.130;6.408;2022-10-22T14:51:55;18.70;92.00
33931;DHT22;20215;53.130;6.408;2022-10-22T14:54:21;18.70;92.00
33931;DHT22;20215;53.130;6.408;2022-10-22T14:56:46;18.70;92.20
33931;DHT22;20215;53.130;6.408;2022-10-22T14:59:12;18.70;92.00
33931;DHT22;20215;53.130;6.408;2022-10-22T15:01:38;18.70;92.10
33931;DHT22;20215;53.130;6.408;2022-10-22T15:04:04;18.70;92.10
33931;DHT22;20215;53.130;6.408;2022-10-22T15:06:29;18.70;92.10
33931;DHT22;20215;53.130;6.408;2022-10-22T15:08:55;18.60;92.10
33931;DHT22;20215;53.130;6.408;2022-10-22T15:11:21;18.60;92.10
33931;DHT22;20215;53.130;6.408;2022-10-22T15:13:46;18.60;92.10
33931;DHT22;20215;53.130;6.408;2022-10-22T15:16:14;18.60;92.10
33931;DHT22;20215;53.130;6.408;2022-10-22T15:18:39;18.60;92.10
33931;DHT22;20215;53.130;6.408;2022-10-22T15:21:14;18.60;92.20
33931;DHT22;20215;53.130;6.408;2022-10-22T15:23:40;18.50;92.10
33931;DHT22;20215;53.130;6.408;2022-10-22T15:26:06;18.50;92.20
33931;DHT22;20215;53.130;6.408;2022-10-22T15:28:32;18.50;92.20
33931;DHT22;20215;53.130;6.408;2022-10-22T15:30:59;18.50;92.20
33931;DHT22;20215;53.130;6.408;2022-10-22T15:33:26;18.50;92.20
33931;DHT22;20215;53.130;6.408;2022-10-22T15:35:52;18.50;92.30
33931;DHT22;20215;53.130;6.408;2022-10-22T15:38:18;18.50;92.20
33931;DHT22;20215;53.130;6.408;2022-10-22T15:40:44;18.50;92.20
33931;DHT22;20215;53.130;6.408;2022-10-22T15:43:09;18.50;92.20
33931;DHT22;20215;53.130;6.408;2022-10-22T15:45:35;18.40;92.20
33931;DHT22;20215;53.130;6.408;2022-10-22T15:48:01;18.40;92.20
33931;DHT22;20215;53.130;6.408;2022-10-22T15:50:26;18.40;92.30
33931;DHT22;20215;53.130;6.408;2022-10-22T15:52:52;18.40;92.30
33931;DHT22;20215;53.130;6.408;2022-10-22T15:55:20;18.40;92.30
33931;DHT22;20215;53.130;6.408;2022-10-22T15:57:45;18.30;92.30
33931;DHT22;20215;53.130;6.408;2022-10-22T16:00:12;18.30;92.30
33931;DHT22;20215;53.130;6.408;2022-10-22T16:02:38;18.30;92.30
33931;DHT22;20215;53.130;6.408;2022-10-22T16:05:04;18.30;92.40
33931;DHT22;20215;53.130;6.408;2022-10-22T16:07:29;18.30;92.40
33931;DHT22;20215;53.130;6.408;2022-10-22T16:09:57;18.40;92.40
33931;DHT22;20215;53.130;6.408;2022-10-22T16:12:22;18.30;92.40
33931;DHT22;20215;53.130;6.408;2022-10-22T16:14:51;18.30;92.50
33931;DHT22;20215;53.130;6.408;2022-10-22T16:17:17;18.30;92.50
33931;DHT22;20215;53.130;6.408;2022-10-22T16:19:42;18.20;92.40
33931;DHT22;20215;53.130;6.408;2022-10-22T16:22:09;18.20;92.50
33931;DHT22;20215;53.130;6.408;2022-10-22T16:24:36;18.20;92.50
33931;DHT22;20215;53.130;6.408;2022-10-22T16:27:08;18.20;92.50
33931;DHT22;20215;53.130;6.408;2022-10-22T16:29:36;18.20;92.60
33931;DHT22;20215;53.130;6.408;2022-10-22T16:32:02;18.20;92.70
33931;DHT22;20215;53.130;6.408;2022-10-22T16:34:27;18.20;92.70
33931;DHT22;20215;53.130;6.408;2022-10-22T16:36:53;18.20;92.70
33931;DHT22;20215;53.130;6.408;2022-10-22T16:39:21;18.20;92.70
33931;DHT22;20215;53.130;6.408;2022-10-22T16:41:47;18.20;92.80
33931;DHT22;20215;53.130;6.408;2022-10-22T16:44:13;18.10;92.70
33931;DHT22;20215;53.130;6.408;2022-10-22T16:46:38;18.10;92.80
33931;DHT22;20215;53.130;6.408;2022-10-22T16:49:05;18.10;92.60
33931;DHT22;20215;53.130;6.408;2022-10-22T16:51:31;18.10;92.60
33931;DHT22;20215;53.130;6.408;2022-10-22T16:53:57;18.10;92.70
33931;DHT22;20215;53.130;6.408;2022-10-22T16:56:24;18.00;92.90
33931;DHT22;20215;53.130;6.408;2022-10-22T16:58:53;18.10;93.00
33931;DHT22;20215;53.130;6.408;2022-10-22T17:01:21;18.00;92.90
33931;DHT22;20215;53.130;6.408;2022-10-22T17:03:47;18.00;92.90
33931;DHT22;20215;53.130;6.408;2022-10-22T17:06:13;18.00;93.00
33931;DHT22;20215;53.130;6.408;2022-10-22T17:08:39;18.00;93.00
33931;DHT22;20215;53.130;6.408;2022-10-22T17:11:13;18.00;93.10
33931;DHT22;20215;53.130;6.408;2022-10-22T17:13:42;18.00;93.00
33931;DHT22;20215;53.130;6.408;2022-10-22T17:16:11;18.00;93.10
33931;DHT22;20215;53.130;6.408;2022-10-22T17:18:38;18.00;93.20
33931;DHT22;20215;53.130;6.408;2022-10-22T17:21:05;18.00;93.20
33931;DHT22;20215;53.130;6.408;2022-10-22T17:23:31;18.00;93.20
33931;DHT22;20215;53.130;6.408;2022-10-22T17:26:02;17.90;93.20
33931;DHT22;20215;53.130;6.408;2022-10-22T17:28:30;18.00;93.20